Time;durP1;ratioP1;P1;durP2;ratioP2;P2;SDS_P1;SDS_P2;PMS_P1;PMS_P2;Temp;Humidity;BMP_temperature;BMP_pressure;BME280_temperature;BME280_humidity;BME280_pressure;Samples;Min_cycle;Max_cycle;Signal;HPM_P1;HPM_P2
2021/11/05 00:02:09;;;;;;;3.53;3.23;;;8.80;99.90;;;;;;5014318;28;20174;-52
2021/11/05 00:04:35;;;;;;;3.67;3.37;;;8.70;99.90;;;;;;5015983;28;20676;-51
2021/11/05 00:07:00;;;;;;;3.30;3.00;;;8.60;99.90;;;;;;5016054;28;20278;-54
2021/11/05 00:09:26;;;;;;;3.53;3.23;;;8.60;99.90;;;;;;5015663;28;20662;-55
2021/11/05 00:11:52;;;;;;;3.37;2.83;;;8.60;99.90;;;;;;5015786;28;20583;-50
2021/11/05 00:14:18;;;;;;;3.77;3.47;;;8.70;99.90;;;;;;5015860;28;20528;-56
2021/11/05 00:16:44;;;;;;;3.67;3.23;;;8.60;99.90;;;;;;5015314;28;20421;-51
2021/11/05 00:19:10;;;;;;;4.03;3.60;;;8.70;99.90;;;;;;5015540;28;21029;-53
2021/11/05 00:21:36;;;;;;;3.90;3.43;;;8.90;99.90;;;;;;5015585;28;20480;-51
2021/11/05 00:24:03;;;;;;;4.70;3.50;;;8.80;99.90;;;;;;5015575;28;20521;-51
2021/11/05 00:26:29;;;;;;;3.13;2.83;;;8.70;99.90;;;;;;5015364;28;20624;-54
2021/11/05 00:28:55;;;;;;;3.47;3.17;;;8.80;99.90;;;;;;5015585;28;20469;-53
2021/11/05 00:31:20;;;;;;;3.83;3.53;;;8.90;99.90;;;;;;5014954;28;20173;-53
2021/11/05 00:33:46;;;;;;;4.03;3.73;;;8.90;99.90;;;;;;5015368;28;20172;-51
2021/11/05 00:36:14;;;;;;;3.40;3.10;;;8.90;99.90;;;;;;5015456;28;20175;-51
2021/11/05 00:38:46;;;;;;;3.93;3.60;;;9.00;99.90;;;;;;5015036;28;20577;-53
2021/11/05 00:41:14;;;;;;;4.70;4.30;;;8.90;99.90;;;;;;5015409;28;20950;-54
2021/11/05 00:43:41;;;;;;;3.30;3.00;;;8.80;99.90;;;;;;5015444;28;20426;-54
2021/11/05 00:46:07;;;;;;;4.30;3.90;;;8.80;99.90;;;;;;5014557;28;20816;-55
2021/11/05 00:48:32;;;;;;;4.90;4.50;;;8.80;99.90;;;;;;5015343;28;20445;-55
2021/11/05 00:50:58;;;;;;;4.27;3.90;;;8.80;99.90;;;;;;5015073;28;20170;-57
2021/11/05 00:53:24;;;;;;;4.10;3.70;;;8.90;99.90;;;;;;5014872;28;20199;-56
2021/11/05 00:55:49;;;;;;;3.80;3.50;;;8.90;99.90;;;;;;5014968;28;20463;-51
2021/11/05 00:58:16;;;;;;;4.50;4.10;;;9.00;99.90;;;;;;5014790;28;20235;-54
2021/11/05 01:00:42;;;;;;;3.70;3.40;;;9.00;99.90;;;;;;5014848;28;20194;-55
2021/11/05 01:03:08;;;;;;;3.37;3.07;;;9.10;99.90;;;;;;5015005;28;20411;-51
2021/11/05 01:05:33;;;;;;;4.00;3.67;;;9.00;99.90;;;;;;5014826;28;20194;-56
2021/11/05 01:08:00;;;;;;;3.73;3.43;;;9.00;99.90;;;;;;5011996;28;20535;-54
2021/11/05 01:10:27;;;;;;;4.00;3.70;;;9.00;99.90;;;;;;5000851;28;20227;-55
2021/11/05 01:12:52;;;;;;;3.93;3.23;;;9.00;99.90;;;;;;5002915;28;20411;-55
2021/11/05 01:15:19;;;;;;;4.03;3.73;;;9.10;99.90;;;;;;4994803;28;20413;-52
2021/11/05 01:17:45;;;;;;;3.97;3.67;;;9.10;99.90;;;;;;5008516;28;20203;-54
2021/11/05 01:20:14;;;;;;;2.83;2.63;;;9.20;99.90;;;;;;5015063;28;20740;-56
2021/11/05 01:22:39;;;;;;;4.57;4.17;;;9.20;99.90;;;;;;5014293;28;20513;-53
2021/11/05 01:25:06;;;;;;;4.40;4.00;;;8.80;99.90;;;;;;5014719;28;20494;-53
2021/11/05 01:27:31;;;;;;;4.20;3.80;;;8.50;99.90;;;;;;5014562;28;20164;-57
2021/11/05 01:29:58;;;;;;;3.43;3.17;;;8.70;99.90;;;;;;5014760;28;20437;-54
2021/11/05 01:32:25;;;;;;;3.70;3.40;;;9.00;99.90;;;;;;5013978;28;20174;-53
2021/11/05 01:34:51;;;;;;;4.03;3.73;;;8.90;99.90;;;;;;5000183;28;20442;-54
2021/11/05 01:37:17;;;;;;;3.70;3.40;;;9.00;99.90;;;;;;4994560;28;20492;-58
2021/11/05 01:39:43;;;;;;;4.03;3.73;;;8.80;99.90;;;;;;4994032;28;20706;-56
2021/11/05 01:42:09;;;;;;;4.63;4.23;;;8.80;99.90;;;;;;4994521;28;20438;-56
2021/11/05 01:44:34;;;;;;;3.57;3.27;;;8.90;99.90;;;;;;4994566;28;20174;-53
2021/11/05 01:47:00;;;;;;;4.20;3.90;;;8.90;99.90;;;;;;5002009;28;20564;-53
2021/11/05 01:49:26;;;;;;;3.90;3.60;;;8.90;99.90;;;;;;5014567;28;20543;-56
2021/11/05 01:51:55;;;;;;;5.00;3.60;;;8.60;99.90;;;;;;5014267;28;20167;-55
2021/11/05 01:54:21;;;;;;;5.90;4.00;;;8.60;99.90;;;;;;5013779;28;20406;-56
2021/11/05 01:56:48;;;;;;;3.80;3.50;;;8.80;99.90;;;;;;5013829;28;20417;-54
2021/11/05 01:59:26;;;;;;;4.90;4.47;;;8.90;99.90;;;;;;5014423;28;20762;-54
2021/11/05 02:01:54;;;;;;;4.03;3.60;;;9.00;99.90;;;;;;5014206;28;20809;-54
2021/11/05 02:04:20;;;;;;;5.50;5.00;;;9.00;99.90;;;;;;5014110;28;20433;-55
2021/11/05 02:06:48;;;;;;;5.17;4.37;;;8.90;99.90;;;;;;5013888;28;20468;-53
2021/11/05 02:09:17;;;;;;;4.23;3.70;;;8.90;99.90;;;;;;5011843;28;20431;-54
2021/11/05 02:11:44;;;;;;;4.90;4.50;;;9.00;99.90;;;;;;5013757;28;20745;-55
2021/11/05 02:14:17;;;;;;;6.17;3.57;;;8.90;99.90;;;;;;5014124;28;20946;-58
2021/11/05 02:16:45;;;;;;;4.97;4.07;;;8.90;99.90;;;;;;5013962;28;20417;-56
2021/11/05 02:19:13;;;;;;;3.70;3.40;;;8.90;99.90;;;;;;5013590;28;20567;-57
2021/11/05 02:21:41;;;;;;;4.20;3.90;;;8.90;99.90;;;;;;5014307;28;20417;-54
2021/11/05 02:24:07;;;;;;;3.27;2.97;;;8.90;99.90;;;;;;5013207;28;20406;-58
2021/11/05 02:26:33;;;;;;;3.30;3.00;;;8.80;99.90;;;;;;5013758;28;20445;-55
2021/11/05 02:28:59;;;;;;;2.80;2.60;;;8.70;99.90;;;;;;5013627;28;20430;-54
2021/11/05 02:31:24;;;;;;;3.43;3.23;;;8.80;99.90;;;;;;5013563;28;20465;-54
2021/11/05 02:33:52;;;;;;;3.20;3.00;;;8.70;99.90;;;;;;5012760;28;20664;-56
2021/11/05 02:36:18;;;;;;;3.90;3.60;;;8.80;99.90;;;;;;5013785;28;20173;-57
2021/11/05 02:38:43;;;;;;;2.90;2.70;;;8.90;99.90;;;;;;5012669;28;20827;-52
2021/11/05 02:41:09;;;;;;;3.60;3.23;;;8.90;99.90;;;;;;5013423;28;20912;-55
2021/11/05 02:43:35;;;;;;;3.07;2.83;;;8.90;99.90;;;;;;5012335;28;20532;-53
2021/11/05 02:46:00;;;;;;;3.27;3.00;;;8.90;99.90;;;;;;5013129;28;20217;-55
2021/11/05 02:48:27;;;;;;;3.63;3.33;;;8.80;99.90;;;;;;5013301;28;20190;-55
2021/11/05 02:50:54;;;;;;;4.07;3.67;;;8.90;99.90;;;;;;5013348;28;20175;-52
2021/11/05 02:53:20;;;;;;;3.80;3.40;;;8.90;99.90;;;;;;5013123;28;20409;-56
2021/11/05 02:55:46;;;;;;;4.00;3.60;;;8.90;99.90;;;;;;5013237;28;20420;-52
2021/11/05 02:58:13;;;;;;;3.57;3.27;;;8.90;99.90;;;;;;5012988;28;20427;-53
2021/11/05 03:00:41;;;;;;;3.00;2.80;;;8.80;99.90;;;;;;5013426;28;20796;-52
2021/11/05 03:03:07;;;;;;;3.27;3.07;;;8.90;99.90;;;;;;5013423;28;20417;-55
2021/11/05 03:05:33;;;;;;;7.83;3.97;;;9.00;99.90;;;;;;5013049;28;20536;-55
2021/11/05 03:07:58;;;;;;;3.97;3.60;;;8.90;99.90;;;;;;5012910;28;20191;-53
2021/11/05 03:10:24;;;;;;;3.40;3.10;;;8.90;99.90;;;;;;5013063;28;20255;-57
2021/11/05 03:12:50;;;;;;;3.50;3.30;;;9.00;99.90;;;;;;5013196;28;20201;-53
2021/11/05 03:15:15;;;;;;;3.17;2.87;;;9.00;99.90;;;;;;5012994;28;20655;-54
2021/11/05 03:17:42;;;;;;;3.57;3.27;;;9.00;99.90;;;;;;5013010;28;20182;-58
2021/11/05 03:20:10;;;;;;;3.80;3.50;;;9.00;99.90;;;;;;5013342;28;20188;-53
2021/11/05 03:22:36;;;;;;;4.03;3.73;;;9.00;99.90;;;;;;5012922;28;20406;-57
2021/11/05 03:25:01;;;;;;;3.93;3.63;;;8.90;99.90;;;;;;5013040;28;20471;-55
2021/11/05 03:27:27;;;;;;;3.90;3.60;;;8.80;99.90;;;;;;5001052;28;20710;-56
2021/11/05 03:29:53;;;;;;;5.03;4.20;;;8.90;99.90;;;;;;4993371;28;20178;-55
2021/11/05 03:32:18;;;;;;;3.43;3.13;;;8.80;99.90;;;;;;4993555;28;20190;-54
2021/11/05 03:34:44;;;;;;;4.30;4.00;;;8.80;99.90;;;;;;4993562;28;20171;-53
2021/11/05 03:37:10;;;;;;;4.27;3.97;;;8.80;99.90;;;;;;4993232;28;20203;-52
2021/11/05 03:39:36;;;;;;;4.00;3.63;;;8.90;99.90;;;;;;4992506;28;20222;-56
2021/11/05 03:42:02;;;;;;;4.43;4.13;;;8.90;99.90;;;;;;4993413;28;20419;-52
2021/11/05 03:44:28;;;;;;;3.60;3.30;;;8.90;99.90;;;;;;4994315;28;20173;-54
2021/11/05 03:46:54;;;;;;;3.57;3.27;;;8.80;99.90;;;;;;5003305;28;20459;-52
2021/11/05 03:49:20;;;;;;;3.47;3.17;;;8.80;99.90;;;;;;5016378;28;20931;-53
2021/11/05 03:51:46;;;;;;;3.83;3.53;;;8.90;99.90;;;;;;5017266;28;20229;-54
2021/11/05 03:54:12;;;;;;;2.83;2.63;;;8.90;99.90;;;;;;5015709;28;20508;-53
2021/11/05 03:56:38;;;;;;;4.07;3.77;;;8.90;99.90;;;;;;5016008;28;20406;-53
2021/11/05 03:59:04;;;;;;;4.40;4.10;;;8.90;99.90;;;;;;5016058;28;20479;-54
2021/11/05 04:01:30;;;;;;;3.47;3.17;;;8.80;99.90;;;;;;5016143;28;20782;-56
2021/11/05 04:03:55;;;;;;;2.87;2.67;;;8.90;99.90;;;;;;5010698;28;20241;-51
2021/11/05 04:06:23;;;;;;;4.30;3.63;;;8.90;99.90;;;;;;4998615;28;20453;-57
2021/11/05 04:08:48;;;;;;;3.93;3.40;;;8.90;99.90;;;;;;4995485;28;20501;-57
2021/11/05 04:11:15;;;;;;;3.30;3.00;;;8.90;99.90;;;;;;4996445;28;20444;-55
2021/11/05 04:13:40;;;;;;;3.00;2.80;;;8.90;99.90;;;;;;4996169;28;20203;-54
2021/11/05 04:16:07;;;;;;;3.47;3.17;;;9.00;99.90;;;;;;4996140;28;20408;-54
2021/11/05 04:18:32;;;;;;;3.20;2.90;;;9.00;99.90;;;;;;5015565;28;20228;-51
2021/11/05 04:20:58;;;;;;;3.23;3.00;;;9.00;99.90;;;;;;5016175;28;20443;-56
2021/11/05 04:23:24;;;;;;;4.10;3.77;;;9.00;99.90;;;;;;5014967;28;20183;-51
2021/11/05 04:25:49;;;;;;;3.57;3.27;;;9.00;99.90;;;;;;5015589;28;20293;-51
2021/11/05 04:28:15;;;;;;;2.93;2.67;;;8.90;99.90;;;;;;5015342;28;20285;-52
2021/11/05 04:30:42;;;;;;;3.17;2.90;;;8.90;99.90;;;;;;5015749;28;20181;-56
2021/11/05 04:33:10;;;;;;;2.90;2.70;;;9.00;99.90;;;;;;5015154;28;20201;-49
2021/11/05 04:35:36;;;;;;;3.20;3.00;;;9.10;99.90;;;;;;5015314;28;20410;-52
2021/11/05 04:38:01;;;;;;;3.00;2.80;;;9.00;99.90;;;;;;5044331;22;20466;-52
2021/11/05 04:40:28;;;;;;;2.13;2.03;;;8.80;99.90;;;;;;5035730;28;20419;-52
2021/11/05 04:42:53;;;;;;;2.57;2.37;;;8.90;99.90;;;;;;5034390;28;20174;-56
2021/11/05 04:45:19;;;;;;;2.17;2.00;;;9.00;99.90;;;;;;5035464;28;20448;-55
2021/11/05 04:47:44;;;;;;;2.50;2.30;;;9.10;99.90;;;;;;5036458;28;20171;-54
2021/11/05 04:50:10;;;;;;;2.87;2.67;;;9.10;99.90;;;;;;5017068;28;20190;-54
2021/11/05 04:52:37;;;;;;;2.63;2.43;;;9.20;99.90;;;;;;5016519;28;20163;-58
2021/11/05 04:55:04;;;;;;;2.73;2.53;;;9.10;99.90;;;;;;5015468;28;20167;-54
2021/11/05 04:57:30;;;;;;;3.00;2.70;;;9.10;99.90;;;;;;5015396;28;20476;-54
2021/11/05 04:59:55;;;;;;;2.90;2.60;;;9.20;99.90;;;;;;5014245;28;20836;-53
2021/11/05 05:02:21;;;;;;;2.97;2.77;;;9.20;99.90;;;;;;5016261;28;20201;-57
2021/11/05 05:04:47;;;;;;;2.00;1.83;;;9.30;99.90;;;;;;5014976;28;20167;-54
2021/11/05 05:07:14;;;;;;;2.90;2.70;;;9.30;99.90;;;;;;5014986;28;20238;-57
2021/11/05 05:09:40;;;;;;;2.93;2.73;;;9.30;99.90;;;;;;5014757;28;20180;-57
2021/11/05 05:12:06;;;;;;;2.80;2.60;;;9.10;99.90;;;;;;5014802;28;20545;-57
2021/11/05 05:14:32;;;;;;;5.80;2.73;;;9.10;99.90;;;;;;5014716;28;20758;-57
2021/11/05 05:16:57;;;;;;;2.43;2.23;;;9.10;99.90;;;;;;5015099;28;20521;-57
2021/11/05 05:19:23;;;;;;;2.57;2.23;;;9.00;99.90;;;;;;5014366;28;20194;-57
2021/11/05 05:21:48;;;;;;;3.00;2.70;;;8.90;99.90;;;;;;5005192;28;20168;-56
2021/11/05 05:24:14;;;;;;;2.50;2.30;;;8.80;99.90;;;;;;4994831;28;20185;-56
2021/11/05 05:26:41;;;;;;;2.43;2.23;;;8.90;99.90;;;;;;4995251;28;20187;-57
2021/11/05 05:29:06;;;;;;;2.40;2.20;;;9.00;99.90;;;;;;4994892;28;20192;-56
2021/11/05 05:31:33;;;;;;;2.60;2.40;;;9.00;99.90;;;;;;4994982;28;20502;-57
2021/11/05 05:33:59;;;;;;;1.93;1.83;;;8.90;99.90;;;;;;4994645;28;20410;-58
2021/11/05 05:36:25;;;;;;;2.10;1.77;;;8.90;99.90;;;;;;4995097;28;20429;-57
2021/11/05 05:38:51;;;;;;;2.00;1.90;;;8.70;99.90;;;;;;4993014;28;20464;-57
2021/11/05 05:41:17;;;;;;;1.90;1.80;;;8.70;99.90;;;;;;4994682;28;20177;-57
2021/11/05 05:43:43;;;;;;;1.83;1.73;;;8.90;99.90;;;;;;5011683;28;20424;-57
2021/11/05 05:46:09;;;;;;;2.60;2.40;;;8.90;99.90;;;;;;5014322;28;20282;-58
2021/11/05 05:48:35;;;;;;;2.47;2.27;;;9.00;99.90;;;;;;5014063;28;20969;-61
2021/11/05 05:51:00;;;;;;;2.17;1.97;;;9.00;99.90;;;;;;5014816;28;20409;-56
2021/11/05 05:53:26;;;;;;;2.47;2.10;;;9.00;99.90;;;;;;5013982;28;20187;-56
2021/11/05 05:55:52;;;;;;;2.30;2.10;;;9.10;99.90;;;;;;5014805;28;20183;-56
2021/11/05 05:58:18;;;;;;;2.70;2.50;;;9.10;99.90;;;;;;5014198;28;20229;-58
2021/11/05 06:00:44;;;;;;;4.30;2.93;;;9.10;99.90;;;;;;5014124;28;20420;-57
2021/11/05 06:03:10;;;;;;;2.43;2.20;;;9.20;99.90;;;;;;5013916;28;20171;-58
2021/11/05 06:05:36;;;;;;;3.30;3.00;;;9.30;99.90;;;;;;5013680;28;20454;-58
2021/11/05 06:08:02;;;;;;;3.90;3.20;;;9.30;99.90;;;;;;5013791;28;20433;-58
2021/11/05 06:10:28;;;;;;;3.93;3.60;;;9.30;99.90;;;;;;5013536;28;20567;-54
2021/11/05 06:12:53;;;;;;;3.70;3.27;;;9.20;99.90;;;;;;5013566;28;20183;-58
2021/11/05 06:15:19;;;;;;;4.00;3.60;;;9.20;99.90;;;;;;5012603;28;20202;-57
2021/11/05 06:17:45;;;;;;;3.23;2.93;;;9.10;99.90;;;;;;5014113;28;20244;-55
2021/11/05 06:20:10;;;;;;;3.63;3.33;;;9.20;99.90;;;;;;5013464;28;20202;-57
2021/11/05 06:22:36;;;;;;;3.00;2.80;;;9.20;99.90;;;;;;5013770;28;20172;-58
2021/11/05 06:25:03;;;;;;;3.00;2.70;;;9.20;99.90;;;;;;5013789;28;20651;-58
2021/11/05 06:27:29;;;;;;;3.53;3.33;;;9.30;99.90;;;;;;5013586;28;20171;-58
2021/11/05 06:29:54;;;;;;;2.50;2.30;;;9.40;99.90;;;;;;5013588;28;20430;-57
2021/11/05 06:32:20;;;;;;;3.47;3.23;;;9.40;99.90;;;;;;5013768;28;20571;-58
2021/11/05 06:34:46;;;;;;;3.70;3.40;;;9.40;99.90;;;;;;5012295;28;20422;-54
2021/11/05 06:37:12;;;;;;;3.80;3.50;;;9.30;99.90;;;;;;5013666;28;20417;-56
2021/11/05 06:39:37;;;;;;;3.57;3.20;;;9.30;99.90;;;;;;5013057;28;20585;-57
2021/11/05 06:42:03;;;;;;;2.93;2.73;;;9.30;99.90;;;;;;5013704;28;20629;-58
2021/11/05 06:44:29;;;;;;;3.90;3.60;;;9.30;99.90;;;;;;5013628;28;20178;-58
2021/11/05 06:46:54;;;;;;;3.10;2.83;;;9.30;99.90;;;;;;5013365;28;20504;-55
2021/11/05 06:49:20;;;;;;;3.60;3.30;;;9.30;99.90;;;;;;5013175;28;20199;-57
2021/11/05 06:51:48;;;;;;;3.20;2.97;;;9.30;99.90;;;;;;5013389;28;20185;-56
2021/11/05 06:54:13;;;;;;;3.53;3.23;;;9.40;99.90;;;;;;5013563;28;20175;-57
2021/11/05 06:56:39;;;;;;;4.17;3.77;;;9.30;99.90;;;;;;5008138;28;20778;-53
2021/11/05 06:59:04;;;;;;;3.43;3.13;;;9.20;99.90;;;;;;4996669;28;20200;-53
2021/11/05 07:01:30;;;;;;;4.03;3.67;;;9.30;99.90;;;;;;4993798;28;20263;-55
2021/11/05 07:03:55;;;;;;;3.70;3.40;;;9.40;99.90;;;;;;4993928;28;20186;-53
2021/11/05 07:06:23;;;;;;;3.70;3.40;;;9.30;99.90;;;;;;4993860;28;20196;-57
2021/11/05 07:08:48;;;;;;;4.43;3.87;;;9.40;99.90;;;;;;4993921;28;20238;-55
2021/11/05 07:11:14;;;;;;;4.47;4.07;;;9.40;99.90;;;;;;4993589;28;20895;-50
2021/11/05 07:13:39;;;;;;;4.33;3.83;;;9.40;99.90;;;;;;5009779;28;20622;-57
2021/11/05 07:16:06;;;;;;;3.20;2.93;;;9.40;99.90;;;;;;5013082;28;20202;-59
2021/11/05 07:18:32;;;;;;;3.13;2.90;;;9.40;99.90;;;;;;5012210;28;20276;-58
2021/11/05 07:21:03;;;;;;;4.73;3.20;;;9.40;99.90;;;;;;4998769;28;20449;-53
2021/11/05 07:23:29;;;;;;;4.13;3.73;;;9.40;99.90;;;;;;4997103;28;20427;-52
2021/11/05 07:25:55;;;;;;;4.27;3.50;;;9.40;99.90;;;;;;4996933;28;20553;-57
2021/11/05 07:28:20;;;;;;;3.47;3.17;;;9.50;99.90;;;;;;4995732;28;20554;-58
2021/11/05 07:30:46;;;;;;;4.23;3.93;;;9.30;99.90;;;;;;4997265;28;20182;-51
2021/11/05 07:33:11;;;;;;;3.40;3.10;;;9.50;99.90;;;;;;4997324;28;20251;-56
2021/11/05 07:35:37;;;;;;;3.87;3.57;;;9.50;99.90;;;;;;4996976;28;20179;-57
2021/11/05 07:38:03;;;;;;;4.10;3.20;;;9.50;99.90;;;;;;4997103;28;20183;-54
2021/11/05 07:40:29;;;;;;;5.00;3.40;;;9.40;99.90;;;;;;4997027;28;20172;-58
2021/11/05 07:42:55;;;;;;;3.77;3.47;;;9.50;99.90;;;;;;5007289;28;20414;-57
2021/11/05 07:45:21;;;;;;;3.43;3.13;;;9.60;99.90;;;;;;5016472;28;20858;-56
2021/11/05 07:47:47;;;;;;;3.20;3.00;;;9.50;99.90;;;;;;5016266;28;20179;-55
2021/11/05 07:50:15;;;;;;;3.20;2.90;;;9.60;99.90;;;;;;5016157;28;20190;-56
2021/11/05 07:52:41;;;;;;;4.07;3.70;;;9.70;99.90;;;;;;5016420;28;20412;-58
2021/11/05 07:55:07;;;;;;;3.70;3.40;;;9.70;99.90;;;;;;5016156;28;20489;-56
2021/11/05 07:57:34;;;;;;;7.33;4.37;;;9.80;99.90;;;;;;5016350;28;20184;-56
2021/11/05 07:59:59;;;;;;;4.17;3.87;;;9.80;99.90;;;;;;5016083;28;20435;-58
2021/11/05 08:02:25;;;;;;;4.03;3.60;;;9.80;99.90;;;;;;5015958;28;20463;-54
2021/11/05 08:04:51;;;;;;;3.40;3.10;;;9.50;99.90;;;;;;5016318;28;20168;-57
2021/11/05 08:07:20;;;;;;;5.00;4.60;;;9.60;99.90;;;;;;5016085;28;20582;-56
2021/11/05 08:09:46;;;;;;;5.17;4.67;;;9.60;99.90;;;;;;5015621;28;20710;-57
2021/11/05 08:12:12;;;;;;;6.17;5.57;;;9.70;99.90;;;;;;5016132;28;20413;-57
2021/11/05 08:14:39;;;;;;;6.80;5.17;;;9.80;99.90;;;;;;5016378;28;20434;-56
2021/11/05 08:17:05;;;;;;;4.20;3.80;;;9.90;99.90;;;;;;5015672;28;20179;-56
2021/11/05 08:19:30;;;;;;;4.50;4.10;;;9.90;99.90;;;;;;5015774;28;20434;-58
2021/11/05 08:21:56;;;;;;;4.00;3.60;;;9.90;99.90;;;;;;5015735;28;20418;-56
2021/11/05 08:24:22;;;;;;;7.13;3.77;;;9.90;99.90;;;;;;5015453;28;20176;-55
2021/11/05 08:26:48;;;;;;;3.77;3.23;;;9.80;99.90;;;;;;5015743;28;20191;-58
2021/11/05 08:29:14;;;;;;;3.63;3.33;;;9.90;99.90;;;;;;5015494;28;20212;-56
2021/11/05 08:31:40;;;;;;;3.40;3.10;;;10.10;99.90;;;;;;5013920;28;20446;-56
2021/11/05 08:34:06;;;;;;;4.70;4.20;;;10.20;99.90;;;;;;5015699;28;20179;-57
2021/11/05 08:36:33;;;;;;;4.27;3.27;;;10.20;99.90;;;;;;5015434;28;20524;-56
2021/11/05 08:38:59;;;;;;;4.07;3.47;;;10.10;99.90;;;;;;5015144;28;20959;-58
2021/11/05 08:41:25;;;;;;;7.67;3.90;;;10.20;99.90;;;;;;5015515;28;20413;-56
2021/11/05 08:43:56;;;;;;;3.70;3.40;;;10.20;99.90;;;;;;5014446;28;20422;-58
2021/11/05 08:46:23;;;;;;;2.77;2.50;;;10.30;99.90;;;;;;5015437;28;20618;-58
2021/11/05 08:48:54;;;;;;;2.80;2.60;;;10.50;99.90;;;;;;5015179;28;20430;-57
2021/11/05 08:51:21;;;;;;;2.80;2.20;;;10.50;99.90;;;;;;5015284;28;20392;-56
2021/11/05 08:53:47;;;;;;;2.50;2.30;;;10.20;99.90;;;;;;5015130;28;20407;-58
2021/11/05 08:56:13;;;;;;;2.50;2.30;;;10.20;99.90;;;;;;5015063;28;20421;-57
2021/11/05 08:58:40;;;;;;;3.07;2.03;;;10.00;99.90;;;;;;5015335;28;20426;-58
2021/11/05 09:01:06;;;;;;;2.77;2.43;;;10.20;99.90;;;;;;5014760;28;20188;-57
2021/11/05 09:03:32;;;;;;;2.90;2.57;;;10.30;99.90;;;;;;5014902;28;20414;-56
2021/11/05 09:05:58;;;;;;;2.13;1.93;;;10.30;99.90;;;;;;5015295;28;20192;-56
2021/11/05 09:08:23;;;;;;;2.40;2.00;;;10.40;99.90;;;;;;5014976;28;20462;-55
2021/11/05 09:10:49;;;;;;;1.77;1.67;;;10.40;99.90;;;;;;5015090;28;20253;-56
2021/11/05 09:13:15;;;;;;;1.80;1.70;;;10.60;99.90;;;;;;5014782;28;20176;-58
2021/11/05 09:15:41;;;;;;;2.50;2.30;;;10.60;99.90;;;;;;5015219;28;20176;-52
2021/11/05 09:18:09;;;;;;;3.40;2.60;;;10.70;99.90;;;;;;5014792;28;20223;-55
2021/11/05 09:20:37;;;;;;;2.27;2.07;;;10.70;99.90;;;;;;5014505;28;20545;-56
2021/11/05 09:23:02;;;;;;;2.53;2.33;;;10.70;99.90;;;;;;5014758;28;20426;-55
2021/11/05 09:25:28;;;;;;;2.10;1.90;;;10.80;99.90;;;;;;5013419;28;20822;-53
2021/11/05 09:27:54;;;;;;;2.20;1.40;;;10.90;99.90;;;;;;4996809;28;20443;-54
2021/11/05 09:30:23;;;;;;;2.20;2.00;;;11.10;99.90;;;;;;4995265;28;20174;-56
2021/11/05 09:32:50;;;;;;;2.00;1.80;;;11.20;99.90;;;;;;4994367;28;20432;-54
2021/11/05 09:35:16;;;;;;;1.70;1.60;;;11.50;99.90;;;;;;4995230;28;20525;-53
2021/11/05 09:37:44;;;;;;;2.77;2.57;;;11.40;99.90;;;;;;4994762;28;20396;-56
2021/11/05 09:40:13;;;;;;;3.50;2.80;;;11.60;99.90;;;;;;4994191;28;20235;-55
2021/11/05 09:42:46;;;;;;;2.60;2.40;;;11.20;99.90;;;;;;5003071;28;20783;-52
2021/11/05 09:45:12;;;;;;;2.53;2.33;;;11.10;99.90;;;;;;5014674;28;20384;-52
2021/11/05 09:47:40;;;;;;;2.40;2.20;;;11.10;99.90;;;;;;5014578;28;20414;-54
2021/11/05 09:50:07;;;;;;;2.43;2.23;;;11.00;99.90;;;;;;5007597;28;20439;-52
2021/11/05 09:52:32;;;;;;;2.50;2.20;;;11.10;99.90;;;;;;4997976;28;20419;-53
2021/11/05 09:54:59;;;;;;;3.07;2.80;;;10.90;99.90;;;;;;4994368;28;20429;-56
2021/11/05 09:57:25;;;;;;;3.30;3.07;;;10.80;99.90;;;;;;4994809;28;20178;-55
2021/11/05 09:59:50;;;;;;;2.80;2.60;;;10.60;99.90;;;;;;4994577;28;20427;-54
2021/11/05 10:02:16;;;;;;;2.60;2.40;;;10.70;99.90;;;;;;4994100;28;20164;-56
2021/11/05 10:04:43;;;;;;;2.90;2.70;;;10.80;99.90;;;;;;4997184;28;20169;-52
2021/11/05 10:07:11;;;;;;;8.10;3.00;;;10.90;99.90;;;;;;5004978;28;20197;-55
2021/11/05 10:09:41;;;;;;;3.13;2.92;;;11.10;99.90;;;;;;5013214;28;20792;-55
2021/11/05 10:12:11;;;;;;;3.00;2.50;;;11.30;99.90;;;;;;5014062;28;20187;-51
2021/11/05 10:14:37;;;;;;;2.77;2.57;;;11.50;99.90;;;;;;5014136;28;20418;-58
2021/11/05 10:17:07;;;;;;;3.50;3.20;;;11.60;99.90;;;;;;5013781;28;20410;-56
2021/11/05 10:19:50;;;;;;;3.67;2.80;;;11.60;99.90;;;;;;5014041;28;20323;-56
2021/11/05 10:22:48;;;;;;;7.27;3.77;;;11.60;99.90;;;;;;5013819;28;20392;-55
2021/11/05 10:25:28;;;;;;;5.80;3.60;;;11.50;99.90;;;;;;5013948;28;20387;-55
2021/11/05 10:28:00;;;;;;;4.53;3.93;;;11.60;99.90;;;;;;5015511;28;20383;-53
2021/11/05 10:30:26;;;;;;;3.47;3.17;;;11.40;99.90;;;;;;5013990;28;20768;-54
2021/11/05 10:32:57;;;;;;;4.70;3.90;;;11.60;99.90;;;;;;5013674;28;20395;-56
2021/11/05 10:35:24;;;;;;;5.17;3.67;;;11.70;99.90;;;;;;5014001;28;20452;-54
2021/11/05 10:37:56;;;;;;;4.47;4.07;;;11.80;99.90;;;;;;5002054;28;20873;-56
2021/11/05 10:40:22;;;;;;;3.80;3.50;;;11.80;99.90;;;;;;5051771;23;20576;-52
2021/11/05 10:42:48;;;;;;;6.53;5.67;;;11.90;99.90;;;;;;5031858;28;20406;-56
2021/11/05 10:45:17;;;;;;;3.87;3.57;;;12.00;99.90;;;;;;5032697;28;20394;-54
2021/11/05 10:47:55;;;;;;;4.70;4.00;;;12.00;99.90;;;;;;5032808;28;20792;-56
2021/11/05 10:50:31;;;;;;;5.30;4.00;;;12.10;99.90;;;;;;5032770;28;20440;-54
2021/11/05 10:53:15;;;;;;;3.90;3.60;;;12.40;99.90;;;;;;5033359;28;20774;-53
2021/11/05 10:55:45;;;;;;;4.30;4.00;;;12.50;99.90;;;;;;5036501;28;20754;-54
2021/11/05 10:58:33;;;;;;;4.93;4.53;;;12.40;99.90;;;;;;5036443;28;20432;-56
2021/11/05 11:01:00;;;;;;;5.00;4.60;;;11.90;99.90;;;;;;5036110;28;20431;-55
2021/11/05 11:03:31;;;;;;;4.20;3.80;;;11.70;99.90;;;;;;5037128;28;20421;-53
2021/11/05 11:06:06;;;;;;;6.57;5.00;;;11.80;99.90;;;;;;5037207;28;20455;-57
2021/11/05 11:08:35;;;;;;;4.97;4.47;;;11.80;99.90;;;;;;5037168;28;20847;-56
2021/11/05 11:11:18;;;;;;;5.90;4.63;;;11.70;99.90;;;;;;5024039;28;20441;-56
2021/11/05 11:13:45;;;;;;;4.50;4.10;;;11.70;99.90;;;;;;5017306;28;20384;-55
2021/11/05 11:16:20;;;;;;;5.40;4.23;;;11.70;99.90;;;;;;5016876;28;20406;-51
2021/11/05 11:18:46;;;;;;;4.93;4.53;;;11.60;99.90;;;;;;5016970;28;20419;-51
2021/11/05 11:21:12;;;;;;;7.07;5.90;;;11.40;99.90;;;;;;5016469;28;20466;-57
2021/11/05 11:23:39;;;;;;;5.97;5.40;;;11.10;99.90;;;;;;5027936;28;20190;-57
2021/11/05 11:26:05;;;;;;;5.87;4.73;;;10.90;99.90;;;;;;5016526;28;20282;-52
2021/11/05 11:28:30;;;;;;;6.13;5.60;;;10.80;99.90;;;;;;5016812;28;20453;-53
2021/11/05 11:30:56;;;;;;;6.20;5.60;;;10.80;99.90;;;;;;5016318;28;20267;-55
2021/11/05 11:33:22;;;;;;;6.20;5.17;;;11.00;99.90;;;;;;5016497;28;20179;-55
2021/11/05 11:35:49;;;;;;;5.73;5.23;;;10.90;99.90;;;;;;5017032;28;20419;-57
2021/11/05 11:38:16;;;;;;;7.50;6.80;;;10.90;99.90;;;;;;5017216;28;20176;-53
2021/11/05 11:40:45;;;;;;;6.50;5.90;;;11.00;99.90;;;;;;5016068;28;20490;-54
2021/11/05 11:43:11;;;;;;;7.60;6.90;;;11.10;99.90;;;;;;5016181;28;20449;-56
2021/11/05 11:45:45;;;;;;;5.97;5.47;;;11.20;99.90;;;;;;5015782;28;20447;-55
2021/11/05 11:48:10;;;;;;;6.53;5.93;;;11.40;99.90;;;;;;5016018;28;20418;-57
2021/11/05 11:50:38;;;;;;;6.87;6.20;;;11.60;99.90;;;;;;5016196;28;20422;-57
2021/11/05 11:53:05;;;;;;;5.80;5.30;;;11.90;99.90;;;;;;5014946;28;20176;-56
2021/11/05 11:55:33;;;;;;;6.57;5.97;;;12.10;99.90;;;;;;5016168;28;20407;-57
2021/11/05 11:58:18;;;;;;;6.13;5.40;;;12.10;99.90;;;;;;5016055;28;20403;-54
2021/11/05 12:00:49;;;;;;;7.53;5.80;;;12.00;99.90;;;;;;5015468;28;20443;-54
2021/11/05 12:03:18;;;;;;;5.60;5.10;;;11.90;99.90;;;;;;5016509;28;20857;-52
2021/11/05 12:05:55;;;;;;;8.97;6.17;;;11.90;99.90;;;;;;5015917;28;20784;-52
2021/11/05 12:08:44;;;;;;;6.60;6.00;;;12.10;99.90;;;;;;5014493;28;20501;-55
2021/11/05 12:11:10;;;;;;;6.70;6.10;;;11.90;99.90;;;;;;5015549;28;20427;-54
2021/11/05 12:13:36;;;;;;;5.23;4.73;;;12.00;99.90;;;;;;5014265;28;20418;-51
2021/11/05 12:16:15;;;;;;;5.27;4.77;;;12.00;99.90;;;;;;5015807;28;20411;-55
2021/11/05 12:18:59;;;;;;;6.03;5.37;;;12.00;99.90;;;;;;5015959;28;20183;-53
2021/11/05 12:21:32;;;;;;;4.80;4.30;;;12.00;99.90;;;;;;5015407;28;20424;-52
2021/11/05 12:24:24;;;;;;;4.87;4.47;;;12.20;99.90;;;;;;5015901;28;20443;-52
2021/11/05 12:27:27;;;;;;;5.73;5.23;;;12.40;99.90;;;;;;5015306;28;20442;-54
2021/11/05 12:29:59;;;;;;;5.73;5.20;;;12.20;99.90;;;;;;5008894;28;20513;-57
2021/11/05 12:32:28;;;;;;;6.27;5.67;;;12.50;99.90;;;;;;5015641;28;20408;-53
2021/11/05 12:35:15;;;;;;;6.13;5.63;;;12.50;99.90;;;;;;5015737;28;20414;-55
2021/11/05 12:38:08;;;;;;;6.90;6.30;;;12.60;99.90;;;;;;5015628;28;20533;-56
2021/11/05 12:40:42;;;;;;;11.67;8.83;;;12.30;99.90;;;;;;5015206;28;20453;-57
2021/11/05 12:43:22;;;;;;;7.57;6.87;;;12.30;99.90;;;;;;5015408;28;20729;-55
2021/11/05 12:45:53;;;;;;;8.00;7.20;;;12.40;99.90;;;;;;5015557;28;20481;-54
2021/11/05 12:48:37;;;;;;;6.83;6.23;;;12.30;99.90;;;;;;5015401;28;20482;-52
2021/11/05 12:51:06;;;;;;;8.10;5.70;;;12.60;99.90;;;;;;5015322;28;20458;-53
2021/11/05 12:53:32;;;;;;;5.47;4.97;;;12.50;99.90;;;;;;5013895;28;20942;-52
2021/11/05 12:55:58;;;;;;;4.77;4.30;;;12.90;99.90;;;;;;5014816;28;20391;-61